Airport Name : Aleppo Intl

Other Name : Aleppo Intl

ICAO : OSAP

IATA : ALP

FAA :

Latitude : 36.180675

Longitude : 37.224358

Country : Syria

Local Date and Time : 19 Jun 2024 03:06

 

TAF (Terminal Aerodrome Forecast)

OSAP 182200Z 1900/1924 24010KT CAVOK BECMG 1915/1917 25015KT CAVOK

 

METAR (METeorological Aerodrome Report)

OSAP 190000Z 34006KT CAVOK 26/14 Q1009

OSAP 182100Z 34006KT CAVOK 28/14 Q1010